Jc Love — WDC3346 — position and weather

sailwx.info

Track history (hours):
 
Tides and Currents Weather Stations Pressure Air Temp Water Temp Dewpoint Dewpoint Depression Visibility Wind Speed Wind Dir Waves Ship Positions

Jc Love

Owner: WEEKS MARINE, INC, CRANFORD, NJ. More information available from US FCC via Universal Licensing System and Coast Guard Vessel Documentation Center.

Last reported at 2017-Sep-21 03:27 UTC. Time now 2017-Sep-21 12:22 UTC.
Position N 29°32' W 090°51'.

Length 20 m; draft 2.5 m.

Type: Tug. MMSI: 367006320.

Date/timePositionNaut miles runAvg speedWind from/ knotsBaromVisibWave heightAir tempDewpointWater temp
2017-Sep-21 03:27N 29°32' W 090°51'1 3.2
2017-Sep-21 03:00N 29°32' W 090°49'2 3.0
2017-Sep-21 02:30N 29°32' W 090°47'1 2.9
2017-Sep-21 02:00N 29°32' W 090°46'2 3.0
2017-Sep-21 01:31N 29°34' W 090°45'1 2.8
2017-Sep-21 01:01N 29°34' W 090°43'2 3.1
2017-Sep-21 00:31N 29°36' W 090°43'1 2.7
2017-Sep-21 00:00N 29°37' W 090°42'2 3.2
2017-Sep-20 23:30N 29°36' W 090°40'1 1.0
2017-Sep-20 23:00N 29°36' W 090°40'0 1.0
2017-Sep-20 22:30N 29°36' W 090°39'1 2.5
2017-Sep-20 21:59N 29°35' W 090°38'1 2.5
2017-Sep-20 21:30N 29°35' W 090°37'3 2.4
2017-Sep-20 20:15N 29°34' W 090°33'1 2.6
2017-Sep-20 20:00N 29°34' W 090°33'1 2.5
2017-Sep-20 19:27N 29°34' W 090°31'  
2017-Sep-14 20:43N 29°34' W 090°33'2 7.5
2017-Sep-14 20:27N 29°35' W 090°36'3 7.3
2017-Sep-14 20:00N 29°36' W 090°39'1 2.4
2017-Sep-14 19:29N 29°35' W 090°38'4 6.0
2017-Sep-14 18:49N 29°34' W 090°33'2 7.1
2017-Sep-14 18:30N 29°34' W 090°31'2 1.9
2017-Sep-14 17:19N 29°34' W 090°33'3 6.8
2017-Sep-14 16:55N 29°35' W 090°36'3 7.5
2017-Sep-14 16:30N 29°36' W 090°40'0 0.5
2017-Sep-14 16:00N 29°36' W 090°40'0 0.2
2017-Sep-14 15:24N 29°36' W 090°40'0 0.0
2017-Sep-14 14:56N 29°36' W 090°40'0 0.0
2017-Sep-14 14:26N 29°36' W 090°40'0 0.0
2017-Sep-14 12:51N 29°36' W 090°40'0 0.0
2017-Sep-14 12:30N 29°36' W 090°40'0 0.0
2017-Sep-14 12:00N 29°36' W 090°40'0 0.0
2017-Sep-14 11:30N 29°36' W 090°40'0 0.0
2017-Sep-14 11:00N 29°36' W 090°40'0 0.0
2017-Sep-14 10:30N 29°36' W 090°40'0 0.0
2017-Sep-14 09:58N 29°36' W 090°40'0 0.0
2017-Sep-14 09:30N 29°36' W 090°40'0 0.0
2017-Sep-14 09:00N 29°36' W 090°40'0 0.0
2017-Sep-14 08:30N 29°36' W 090°40'0 0.0
2017-Sep-14 08:00N 29°36' W 090°40'0 0.0
2017-Sep-14 07:30N 29°36' W 090°40'0 0.0
2017-Sep-14 07:00N 29°36' W 090°40'0 0.0
2017-Sep-14 06:30N 29°36' W 090°40'0 0.0
2017-Sep-14 06:00N 29°36' W 090°40'0 0.0
2017-Sep-14 05:30N 29°36' W 090°40'0 0.0
2017-Sep-14 05:00N 29°36' W 090°40'0 0.0
2017-Sep-14 04:30N 29°36' W 090°40'0 0.0
2017-Sep-14 04:00N 29°36' W 090°40'0 0.0
2017-Sep-14 03:23N 29°36' W 090°40'0 0.0
2017-Sep-14 02:59N 29°36' W 090°40'0 0.0
2017-Sep-14 02:30N 29°36' W 090°40'0 0.0
2017-Sep-14 02:00N 29°36' W 090°40'0 0.0
2017-Sep-14 01:30N 29°36' W 090°40'0 0.0
2017-Sep-14 01:00N 29°36' W 090°40'0 0.0
2017-Sep-14 00:30N 29°36' W 090°40'0 0.0
2017-Sep-14 00:00N 29°36' W 090°40'0 0.0
2017-Sep-13 23:30N 29°36' W 090°40'0 0.0
2017-Sep-13 22:59N 29°36' W 090°40'0 0.0
2017-Sep-13 22:24N 29°36' W 090°40'0 0.0
2017-Sep-13 21:55N 29°36' W 090°40'0 0.0
2017-Sep-13 21:27N 29°36' W 090°40'0 0.0
2017-Sep-13 20:58N 29°36' W 090°40'0 0.0
2017-Sep-13 20:30N 29°36' W 090°40'0 0.0
2017-Sep-13 19:59N 29°36' W 090°40'0 0.0
2017-Sep-13 19:30N 29°36' W 090°40'0 0.0
2017-Sep-13 19:00N 29°36' W 090°40'0 0.0
2017-Sep-13 18:30N 29°36' W 090°40'0 0.0
2017-Sep-13 18:00N 29°36' W 090°40'0 0.0
2017-Sep-13 16:36N 29°36' W 090°40'0 0.0
2017-Sep-13 16:30N 29°36' W 090°40'0 0.0
2017-Sep-13 15:59N 29°36' W 090°40'0 0.0
2017-Sep-13 15:30N 29°36' W 090°40'0 0.0
2017-Sep-13 15:00N 29°36' W 090°40'0 0.0
2017-Sep-13 14:30N 29°36' W 090°40'0 0.0
2017-Sep-13 13:59N 29°36' W 090°40'0 0.0
2017-Sep-13 13:30N 29°36' W 090°40'0 0.0
2017-Sep-13 13:00N 29°36' W 090°40'0 0.0
2017-Sep-13 12:30N 29°36' W 090°40'0 0.0
2017-Sep-13 12:00N 29°36' W 090°40'0 0.0
2017-Sep-13 11:30N 29°36' W 090°40'0 0.0
2017-Sep-13 11:00N 29°36' W 090°40'0 0.0
2017-Sep-13 10:30N 29°36' W 090°40'0 0.0
2017-Sep-13 10:00N 29°36' W 090°40'0 0.0
2017-Sep-13 09:30N 29°36' W 090°40'0 0.0
2017-Sep-13 09:00N 29°36' W 090°40'0 0.0
2017-Sep-13 08:30N 29°36' W 090°40'0 0.0
2017-Sep-13 08:00N 29°36' W 090°40'0 0.0
2017-Sep-13 07:30N 29°36' W 090°40'0 0.0
2017-Sep-13 07:00N 29°36' W 090°40'0 0.0
2017-Sep-13 06:30N 29°36' W 090°40'0 0.0
2017-Sep-13 06:00N 29°36' W 090°40'0 0.0
2017-Sep-13 05:30N 29°36' W 090°40'0 0.0
2017-Sep-13 05:00N 29°36' W 090°40'0 0.0
2017-Sep-13 04:30N 29°36' W 090°40'0 0.0
2017-Sep-13 04:00N 29°36' W 090°40'0 0.0
2017-Sep-13 03:30N 29°36' W 090°40'0 0.0
2017-Sep-13 03:00N 29°36' W 090°40'0 0.0
2017-Sep-13 02:30N 29°36' W 090°40'0 0.0
2017-Sep-13 02:00N 29°36' W 090°40'0 0.0
2017-Sep-13 01:30N 29°36' W 090°40'0 0.0
2017-Sep-13 01:00N 29°36' W 090°40'0 0.0
2017-Sep-13 00:30N 29°36' W 090°40'0 0.0
2017-Sep-13 00:00N 29°36' W 090°40'0 0.0
2017-Sep-12 23:30N 29°36' W 090°40'0 0.0
2017-Sep-12 21:08N 29°36' W 090°40'0 0.0
2017-Sep-12 17:00N 29°36' W 090°40'0 0.0
2017-Sep-12 16:26N 29°36' W 090°40'0 0.0
2017-Sep-12 16:00N 29°36' W 090°40'0 0.0
2017-Sep-12 15:30N 29°36' W 090°40'0 0.0
2017-Sep-12 15:00N 29°36' W 090°40'0 0.0
2017-Sep-12 14:30N 29°36' W 090°40'0 0.0
2017-Sep-12 13:56N 29°36' W 090°40'0 0.0
2017-Sep-12 13:30N 29°36' W 090°40'0 0.0
2017-Sep-12 13:00N 29°36' W 090°40'0 0.0
2017-Sep-12 12:30N 29°36' W 090°40'0 0.0
2017-Sep-12 09:15N 29°36' W 090°40'0 0.0
2017-Sep-12 09:00N 29°36' W 090°40'0 0.0
2017-Sep-12 08:30N 29°36' W 090°40'0 0.0
2017-Sep-12 08:00N 29°36' W 090°40'0 0.0
2017-Sep-12 07:30N 29°36' W 090°40'0 0.0
2017-Sep-12 07:00N 29°36' W 090°40'0 0.0
2017-Sep-12 06:30N 29°36' W 090°40'0 0.0
2017-Sep-12 06:00N 29°36' W 090°40'0 0.0
2017-Sep-12 05:30N 29°36' W 090°40'0 0.0
2017-Sep-12 05:00N 29°36' W 090°40'0 0.0
2017-Sep-12 04:30N 29°36' W 090°40'0 0.0
2017-Sep-12 04:00N 29°36' W 090°40'0 0.1
2017-Sep-12 03:30N 29°36' W 090°40'0 0.1
2017-Sep-12 03:00N 29°36' W 090°40'0 0.0
2017-Sep-12 02:30N 29°36' W 090°40'0 0.0
2017-Sep-12 02:00N 29°36' W 090°40'0 0.0
2017-Sep-12 01:30N 29°36' W 090°40'0 0.0
2017-Sep-12 01:00N 29°36' W 090°40'0 0.0
2017-Sep-12 00:30N 29°36' W 090°40'0 0.0
2017-Sep-11 23:57N 29°36' W 090°40'0 0.0
2017-Sep-11 23:30N 29°36' W 090°40'0 0.0
2017-Sep-11 23:00N 29°36' W 090°40'0 0.0
2017-Sep-11 22:30N 29°36' W 090°40'0 0.0
2017-Sep-11 22:00N 29°36' W 090°40'0 0.0
2017-Sep-11 21:30N 29°36' W 090°40'0 0.0
2017-Sep-11 20:56N 29°36' W 090°40'0 0.0
2017-Sep-11 20:29N 29°36' W 090°40'0 0.0
2017-Sep-11 19:29N 29°36' W 090°40'0 0.0
2017-Sep-11 18:59N 29°36' W 090°40'0 0.0
2017-Sep-11 18:27N 29°36' W 090°40'0 0.0
2017-Sep-11 18:00N 29°36' W 090°40'0 0.0
2017-Sep-11 17:30N 29°36' W 090°40'0 0.0
2017-Sep-11 17:00N 29°36' W 090°40'0 0.0
2017-Sep-11 16:28N 29°36' W 090°40'0 0.0
2017-Sep-11 15:59N 29°36' W 090°40'0 0.0
2017-Sep-11 15:30N 29°36' W 090°40'0 0.0
2017-Sep-11 15:00N 29°36' W 090°40'0 0.0
2017-Sep-11 14:30N 29°36' W 090°40'0 0.0
2017-Sep-11 14:00N 29°36' W 090°40'0 0.0
2017-Sep-11 13:30N 29°36' W 090°40'0 0.0
2017-Sep-11 13:00N 29°36' W 090°40'0 0.0
2017-Sep-11 12:30N 29°36' W 090°40'0 0.0
2017-Sep-11 12:00N 29°36' W 090°40'0 0.0
2017-Sep-11 11:30N 29°36' W 090°40'0 0.0
2017-Sep-11 11:00N 29°36' W 090°40'0 0.0
2017-Sep-11 10:30N 29°36' W 090°40'0 0.0
2017-Sep-11 10:00N 29°36' W 090°40'0 0.0
2017-Sep-11 09:30N 29°36' W 090°40'0 0.0
2017-Sep-11 09:00N 29°36' W 090°40'0 0.0
2017-Sep-11 08:30N 29°36' W 090°40'0 0.0
2017-Sep-11 08:00N 29°36' W 090°40'0 0.0
2017-Sep-11 07:30N 29°36' W 090°40'0 0.0
2017-Sep-11 07:00N 29°36' W 090°40'0 0.0
2017-Sep-11 06:30N 29°36' W 090°40'0 0.0
2017-Sep-11 06:00N 29°36' W 090°40'0 0.0
2017-Sep-11 05:30N 29°36' W 090°40'0 0.0
2017-Sep-11 05:00N 29°36' W 090°40'0 0.0
2017-Sep-11 04:30N 29°36' W 090°40'0 0.0
2017-Sep-11 03:45N 29°36' W 090°40'0 0.0
2017-Sep-11 03:29N 29°36' W 090°40'  
Track history (hours):
 
Tides and Currents Weather Stations Pressure Air Temp Water Temp Dewpoint Dewpoint Depression Visibility Wind Speed Wind Dir Waves Ship Positions

Jc Love

Owner: WEEKS MARINE, INC, CRANFORD, NJ. More information available from US FCC via Universal Licensing System and Coast Guard Vessel Documentation Center.

Last reported at 2017-Sep-21 03:27 UTC. Time now 2017-Sep-21 12:22 UTC.
Position N 29°32' W 090°51'.

Length 20 m; draft 2.5 m.

Type: Tug. MMSI: 367006320.

Date/timePositionNaut miles runAvg speedWind from/ knotsBaromVisibWave heightAir tempDewpointWater temp
2017-Sep-21 03:27N 29°32' W 090°51'1 3.2
2017-Sep-21 03:00N 29°32' W 090°49'2 3.0
2017-Sep-21 02:30N 29°32' W 090°47'1 2.9
2017-Sep-21 02:00N 29°32' W 090°46'2 3.0
2017-Sep-21 01:31N 29°34' W 090°45'1 2.8
2017-Sep-21 01:01N 29°34' W 090°43'2 3.1
2017-Sep-21 00:31N 29°36' W 090°43'1 2.7
2017-Sep-21 00:00N 29°37' W 090°42'2 3.2
2017-Sep-20 23:30N 29°36' W 090°40'1 1.0
2017-Sep-20 23:00N 29°36' W 090°40'0 1.0
2017-Sep-20 22:30N 29°36' W 090°39'1 2.5
2017-Sep-20 21:59N 29°35' W 090°38'1 2.5
2017-Sep-20 21:30N 29°35' W 090°37'3 2.4
2017-Sep-20 20:15N 29°34' W 090°33'1 2.6
2017-Sep-20 20:00N 29°34' W 090°33'1 2.5
2017-Sep-20 19:27N 29°34' W 090°31'  
2017-Sep-14 20:43N 29°34' W 090°33'2 7.5
2017-Sep-14 20:27N 29°35' W 090°36'3 7.3
2017-Sep-14 20:00N 29°36' W 090°39'1 2.4
2017-Sep-14 19:29N 29°35' W 090°38'4 6.0
2017-Sep-14 18:49N 29°34' W 090°33'2 7.1
2017-Sep-14 18:30N 29°34' W 090°31'2 1.9
2017-Sep-14 17:19N 29°34' W 090°33'3 6.8
2017-Sep-14 16:55N 29°35' W 090°36'3 7.5
2017-Sep-14 16:30N 29°36' W 090°40'0 0.5
2017-Sep-14 16:00N 29°36' W 090°40'0 0.2
2017-Sep-14 15:24N 29°36' W 090°40'0 0.0
2017-Sep-14 14:56N 29°36' W 090°40'0 0.0
2017-Sep-14 14:26N 29°36' W 090°40'0 0.0
2017-Sep-14 12:51N 29°36' W 090°40'0 0.0
2017-Sep-14 12:30N 29°36' W 090°40'0 0.0
2017-Sep-14 12:00N 29°36' W 090°40'0 0.0
2017-Sep-14 11:30N 29°36' W 090°40'0 0.0
2017-Sep-14 11:00N 29°36' W 090°40'0 0.0
2017-Sep-14 10:30N 29°36' W 090°40'0 0.0
2017-Sep-14 09:58N 29°36' W 090°40'0 0.0
2017-Sep-14 09:30N 29°36' W 090°40'0 0.0
2017-Sep-14 09:00N 29°36' W 090°40'0 0.0
2017-Sep-14 08:30N 29°36' W 090°40'0 0.0
2017-Sep-14 08:00N 29°36' W 090°40'0 0.0
2017-Sep-14 07:30N 29°36' W 090°40'0 0.0
2017-Sep-14 07:00N 29°36' W 090°40'0 0.0
2017-Sep-14 06:30N 29°36' W 090°40'0 0.0
2017-Sep-14 06:00N 29°36' W 090°40'0 0.0
2017-Sep-14 05:30N 29°36' W 090°40'0 0.0
2017-Sep-14 05:00N 29°36' W 090°40'0 0.0
2017-Sep-14 04:30N 29°36' W 090°40'0 0.0
2017-Sep-14 04:00N 29°36' W 090°40'0 0.0
2017-Sep-14 03:23N 29°36' W 090°40'0 0.0
2017-Sep-14 02:59N 29°36' W 090°40'0 0.0
2017-Sep-14 02:30N 29°36' W 090°40'0 0.0
2017-Sep-14 02:00N 29°36' W 090°40'0 0.0
2017-Sep-14 01:30N 29°36' W 090°40'0 0.0
2017-Sep-14 01:00N 29°36' W 090°40'0 0.0
2017-Sep-14 00:30N 29°36' W 090°40'0 0.0
2017-Sep-14 00:00N 29°36' W 090°40'0 0.0
2017-Sep-13 23:30N 29°36' W 090°40'0 0.0
2017-Sep-13 22:59N 29°36' W 090°40'0 0.0
2017-Sep-13 22:24N 29°36' W 090°40'0 0.0
2017-Sep-13 21:55N 29°36' W 090°40'0 0.0
2017-Sep-13 21:27N 29°36' W 090°40'0 0.0
2017-Sep-13 20:58N 29°36' W 090°40'0 0.0
2017-Sep-13 20:30N 29°36' W 090°40'0 0.0
2017-Sep-13 19:59N 29°36' W 090°40'0 0.0
2017-Sep-13 19:30N 29°36' W 090°40'0 0.0
2017-Sep-13 19:00N 29°36' W 090°40'0 0.0
2017-Sep-13 18:30N 29°36' W 090°40'0 0.0
2017-Sep-13 18:00N 29°36' W 090°40'0 0.0
2017-Sep-13 16:36N 29°36' W 090°40'0 0.0
2017-Sep-13 16:30N 29°36' W 090°40'0 0.0
2017-Sep-13 15:59N 29°36' W 090°40'0 0.0
2017-Sep-13 15:30N 29°36' W 090°40'0 0.0
2017-Sep-13 15:00N 29°36' W 090°40'0 0.0
2017-Sep-13 14:30N 29°36' W 090°40'0 0.0
2017-Sep-13 13:59N 29°36' W 090°40'0 0.0
2017-Sep-13 13:30N 29°36' W 090°40'0 0.0
2017-Sep-13 13:00N 29°36' W 090°40'0 0.0
2017-Sep-13 12:30N 29°36' W 090°40'0 0.0
2017-Sep-13 12:00N 29°36' W 090°40'0 0.0
2017-Sep-13 11:30N 29°36' W 090°40'0 0.0
2017-Sep-13 11:00N 29°36' W 090°40'0 0.0
2017-Sep-13 10:30N 29°36' W 090°40'0 0.0
2017-Sep-13 10:00N 29°36' W 090°40'0 0.0
2017-Sep-13 09:30N 29°36' W 090°40'0 0.0
2017-Sep-13 09:00N 29°36' W 090°40'0 0.0
2017-Sep-13 08:30N 29°36' W 090°40'0 0.0
2017-Sep-13 08:00N 29°36' W 090°40'0 0.0
2017-Sep-13 07:30N 29°36' W 090°40'0 0.0
2017-Sep-13 07:00N 29°36' W 090°40'0 0.0
2017-Sep-13 06:30N 29°36' W 090°40'0 0.0
2017-Sep-13 06:00N 29°36' W 090°40'0 0.0
2017-Sep-13 05:30N 29°36' W 090°40'0 0.0
2017-Sep-13 05:00N 29°36' W 090°40'0 0.0
2017-Sep-13 04:30N 29°36' W 090°40'0 0.0
2017-Sep-13 04:00N 29°36' W 090°40'0 0.0
2017-Sep-13 03:30N 29°36' W 090°40'0 0.0
2017-Sep-13 03:00N 29°36' W 090°40'0 0.0
2017-Sep-13 02:30N 29°36' W 090°40'0 0.0
2017-Sep-13 02:00N 29°36' W 090°40'0 0.0
2017-Sep-13 01:30N 29°36' W 090°40'0 0.0
2017-Sep-13 01:00N 29°36' W 090°40'0 0.0
2017-Sep-13 00:30N 29°36' W 090°40'0 0.0
2017-Sep-13 00:00N 29°36' W 090°40'0 0.0
2017-Sep-12 23:30N 29°36' W 090°40'0 0.0
2017-Sep-12 21:08N 29°36' W 090°40'0 0.0
2017-Sep-12 17:00N 29°36' W 090°40'0 0.0
2017-Sep-12 16:26N 29°36' W 090°40'0 0.0
2017-Sep-12 16:00N 29°36' W 090°40'0 0.0
2017-Sep-12 15:30N 29°36' W 090°40'0 0.0
2017-Sep-12 15:00N 29°36' W 090°40'0 0.0
2017-Sep-12 14:30N 29°36' W 090°40'0 0.0
2017-Sep-12 13:56N 29°36' W 090°40'0 0.0
2017-Sep-12 13:30N 29°36' W 090°40'0 0.0
2017-Sep-12 13:00N 29°36' W 090°40'0 0.0
2017-Sep-12 12:30N 29°36' W 090°40'0 0.0
2017-Sep-12 09:15N 29°36' W 090°40'0 0.0
2017-Sep-12 09:00N 29°36' W 090°40'0 0.0
2017-Sep-12 08:30N 29°36' W 090°40'0 0.0
2017-Sep-12 08:00N 29°36' W 090°40'0 0.0
2017-Sep-12 07:30N 29°36' W 090°40'0 0.0
2017-Sep-12 07:00N 29°36' W 090°40'0 0.0
2017-Sep-12 06:30N 29°36' W 090°40'0 0.0
2017-Sep-12 06:00N 29°36' W 090°40'0 0.0
2017-Sep-12 05:30N 29°36' W 090°40'0 0.0
2017-Sep-12 05:00N 29°36' W 090°40'0 0.0
2017-Sep-12 04:30N 29°36' W 090°40'0 0.0
2017-Sep-12 04:00N 29°36' W 090°40'0 0.1
2017-Sep-12 03:30N 29°36' W 090°40'0 0.1
2017-Sep-12 03:00N 29°36' W 090°40'0 0.0
2017-Sep-12 02:30N 29°36' W 090°40'0 0.0
2017-Sep-12 02:00N 29°36' W 090°40'0 0.0
2017-Sep-12 01:30N 29°36' W 090°40'0 0.0
2017-Sep-12 01:00N 29°36' W 090°40'0 0.0
2017-Sep-12 00:30N 29°36' W 090°40'0 0.0
2017-Sep-11 23:57N 29°36' W 090°40'0 0.0
2017-Sep-11 23:30N 29°36' W 090°40'0 0.0
2017-Sep-11 23:00N 29°36' W 090°40'0 0.0
2017-Sep-11 22:30N 29°36' W 090°40'0 0.0
2017-Sep-11 22:00N 29°36' W 090°40'0 0.0
2017-Sep-11 21:30N 29°36' W 090°40'0 0.0
2017-Sep-11 20:56N 29°36' W 090°40'0 0.0
2017-Sep-11 20:29N 29°36' W 090°40'0 0.0
2017-Sep-11 19:29N 29°36' W 090°40'0 0.0
2017-Sep-11 18:59N 29°36' W 090°40'0 0.0
2017-Sep-11 18:27N 29°36' W 090°40'0 0.0
2017-Sep-11 18:00N 29°36' W 090°40'0 0.0
2017-Sep-11 17:30N 29°36' W 090°40'0 0.0
2017-Sep-11 17:00N 29°36' W 090°40'0 0.0
2017-Sep-11 16:28N 29°36' W 090°40'0 0.0
2017-Sep-11 15:59N 29°36' W 090°40'0 0.0
2017-Sep-11 15:30N 29°36' W 090°40'0 0.0
2017-Sep-11 15:00N 29°36' W 090°40'0 0.0
2017-Sep-11 14:30N 29°36' W 090°40'0 0.0
2017-Sep-11 14:00N 29°36' W 090°40'0 0.0
2017-Sep-11 13:30N 29°36' W 090°40'0 0.0
2017-Sep-11 13:00N 29°36' W 090°40'0 0.0
2017-Sep-11 12:30N 29°36' W 090°40'0 0.0
2017-Sep-11 12:00N 29°36' W 090°40'0 0.0
2017-Sep-11 11:30N 29°36' W 090°40'0 0.0
2017-Sep-11 11:00N 29°36' W 090°40'0 0.0
2017-Sep-11 10:30N 29°36' W 090°40'0 0.0
2017-Sep-11 10:00N 29°36' W 090°40'0 0.0
2017-Sep-11 09:30N 29°36' W 090°40'0 0.0
2017-Sep-11 09:00N 29°36' W 090°40'0 0.0
2017-Sep-11 08:30N 29°36' W 090°40'0 0.0
2017-Sep-11 08:00N 29°36' W 090°40'0 0.0
2017-Sep-11 07:30N 29°36' W 090°40'0 0.0
2017-Sep-11 07:00N 29°36' W 090°40'0 0.0
2017-Sep-11 06:30N 29°36' W 090°40'0 0.0
2017-Sep-11 06:00N 29°36' W 090°40'0 0.0
2017-Sep-11 05:30N 29°36' W 090°40'0 0.0
2017-Sep-11 05:00N 29°36' W 090°40'0 0.0
2017-Sep-11 04:30N 29°36' W 090°40'0 0.0
2017-Sep-11 03:45N 29°36' W 090°40'0 0.0
2017-Sep-11 03:29N 29°36' W 090°40'  

Dump ship's entire track history